Airfield :
LOGIN :

Register | Disclaimer

   EN    FR    IT 

 










Legend :    VFR   Marginal VFR   IFR   Intensive IFR   Very Intensive IFR
Visi :
Ceiling :
>= 8 km
>= 3000ft
5 to 8 km
1000 to 3000 ft
1500m to 5 km
500 to 1000 ft
800 to 1500m
200 to 500 ft
< 800m
< 200 ft
Symbols :   Thunderstorms  Fog  Heavy snow  Heavy precipitations  Wind > 20 kt
SIGMETs :     Misc.  Thunderstorms  Icing  Turbulence  Mountain Waves  Volcanic Ashes






- Airport Elevation : 325 ft
- IATA code : BES


LFRB - Brest

CURRENT METAR :
  • 090630Z AUTO 20006KT 9999 FEW020 BKN036 BKN045 06/05 Q1008 TEMPO 4000 SHRA BKN015TCU BECMG 27010KT

EXPIRED METARs :
  • 090600Z AUTO 20005KT 9999 FEW019 BKN029 OVC037 05/05 Q1008 TEMPO 4000 SHRA BKN015TCU
  • 090530Z AUTO 22005KT 9999 -RA FEW025 BKN032 BKN038 05/05 Q1008 TEMPO 4000 SHRA BKN015TCU
  • 090500Z AUTO 23003KT 9999 SCT031 BKN040 BKN048 06/05 Q1008 TEMPO 4000 SHRA BKN015TCU
  • 090430Z AUTO 26006KT 220V290 9999 -RA FEW025/// BKN038/// BKN048/// ///TCU 06/05 Q1008 TEMPO 4000 SHRA
  • 090400Z AUTO 27004KT 9999 FEW031/// BKN044/// BKN062/// ///TCU 06/04 Q1008 TEMPO 4000 SHRA

TAF TAF LFRB
Valid from the 09 at 06:00 until the 10 at 12:00 UTC


090500Z 0906/1012 27010KT 9999 BKN030
PROB40
TEMPO 0906/0910 4000 SHRA BKN015TCU
BECMG 0909/0911 17010KT 5000 RA BKN010
TEMPO 0911/0917 3000 RA BKN005
PROB40
TEMPO 0911/0916 1500 RADZ BKN002
BECMG 0915/0918 28020G35KT 9999 NSW BKN020
TEMPO 0918/1009 28025G40KT
TEMPO 0918/1012 5000 SHRA BKN025TCU
ATIS : +33 2 98 32 02 71



MET'MAP, your aeronautical weather chart ! - Copyright ORBIFLY December 2007 - Disclaimer

ORBIFLY MET'MAP TEAM :

Programming & Development : Alexandra Zaïnal
Concept & original design : Baudouin d'Aumeries
Assistance for programming : Marc-Olivier Méhu
Technical & hardware support : Manuel Goepfert

Contact : metmap@orbifly.com




SOURCES & CREDITS :

   NOAA